sensor_id;sensor_type;location;lat;lon;timestamp;P1;durP1;ratioP1;P2;durP2;ratioP2
572;SDS011;271;51.114;13.780;2022-11-24T00:00:06;41.00;;;16.35;;
572;SDS011;271;51.114;13.780;2022-11-24T00:02:35;38.30;;;16.30;;
572;SDS011;271;51.114;13.780;2022-11-24T00:05:03;40.80;;;16.23;;
572;SDS011;271;51.114;13.780;2022-11-24T00:07:31;36.67;;;17.50;;
572;SDS011;271;51.114;13.780;2022-11-24T00:09:58;40.17;;;16.42;;
572;SDS011;271;51.114;13.780;2022-11-24T00:12:27;41.25;;;16.88;;
572;SDS011;271;51.114;13.780;2022-11-24T00:14:55;36.22;;;15.65;;
572;SDS011;271;51.114;13.780;2022-11-24T00:17:22;37.45;;;14.93;;
572;SDS011;271;51.114;13.780;2022-11-24T00:19:50;39.72;;;17.15;;
572;SDS011;271;51.114;13.780;2022-11-24T00:22:17;35.28;;;14.60;;
572;SDS011;271;51.114;13.780;2022-11-24T00:24:45;38.08;;;15.23;;
572;SDS011;271;51.114;13.780;2022-11-24T00:27:12;37.28;;;15.13;;
572;SDS011;271;51.114;13.780;2022-11-24T00:29:41;41.90;;;15.98;;
572;SDS011;271;51.114;13.780;2022-11-24T00:32:08;36.88;;;14.60;;
572;SDS011;271;51.114;13.780;2022-11-24T00:34:36;39.38;;;15.45;;
572;SDS011;271;51.114;13.780;2022-11-24T00:37:04;36.78;;;15.73;;
572;SDS011;271;51.114;13.780;2022-11-24T00:39:31;37.78;;;15.52;;
572;SDS011;271;51.114;13.780;2022-11-24T00:41:59;42.63;;;15.98;;
572;SDS011;271;51.114;13.780;2022-11-24T00:44:26;37.72;;;15.95;;
572;SDS011;271;51.114;13.780;2022-11-24T00:46:55;42.70;;;15.93;;
572;SDS011;271;51.114;13.780;2022-11-24T00:49:23;36.67;;;16.40;;
572;SDS011;271;51.114;13.780;2022-11-24T00:51:50;38.30;;;15.93;;
572;SDS011;271;51.114;13.780;2022-11-24T00:54:18;38.08;;;14.77;;
572;SDS011;271;51.114;13.780;2022-11-24T00:56:46;38.10;;;15.90;;
572;SDS011;271;51.114;13.780;2022-11-24T00:59:13;39.65;;;15.25;;
572;SDS011;271;51.114;13.780;2022-11-24T01:01:41;37.10;;;14.15;;
572;SDS011;271;51.114;13.780;2022-11-24T01:04:10;33.60;;;14.85;;
572;SDS011;271;51.114;13.780;2022-11-24T01:06:37;35.67;;;14.45;;
572;SDS011;271;51.114;13.780;2022-11-24T01:09:04;38.35;;;16.40;;
572;SDS011;271;51.114;13.780;2022-11-24T01:11:33;44.47;;;15.50;;
572;SDS011;271;51.114;13.780;2022-11-24T01:14:15;37.58;;;15.27;;
572;SDS011;271;51.114;13.780;2022-11-24T01:16:43;42.30;;;15.48;;
572;SDS011;271;51.114;13.780;2022-11-24T01:19:12;33.35;;;13.75;;
572;SDS011;271;51.114;13.780;2022-11-24T01:21:39;36.67;;;14.40;;
572;SDS011;271;51.114;13.780;2022-11-24T01:24:07;34.50;;;14.57;;
572;SDS011;271;51.114;13.780;2022-11-24T01:26:36;39.72;;;14.40;;
572;SDS011;271;51.114;13.780;2022-11-24T01:29:04;38.25;;;14.35;;
572;SDS011;271;51.114;13.780;2022-11-24T01:31:31;40.38;;;14.27;;
572;SDS011;271;51.114;13.780;2022-11-24T01:34:01;37.47;;;14.88;;
572;SDS011;271;51.114;13.780;2022-11-24T01:36:30;36.30;;;13.18;;
572;SDS011;271;51.114;13.780;2022-11-24T01:38:57;35.35;;;13.90;;
572;SDS011;271;51.114;13.780;2022-11-24T01:41:25;42.40;;;15.32;;
572;SDS011;271;51.114;13.780;2022-11-24T01:43:54;40.83;;;14.00;;
572;SDS011;271;51.114;13.780;2022-11-24T01:46:23;37.58;;;13.73;;
572;SDS011;271;51.114;13.780;2022-11-24T01:48:56;35.15;;;14.45;;
572;SDS011;271;51.114;13.780;2022-11-24T01:51:30;34.55;;;13.63;;
572;SDS011;271;51.114;13.780;2022-11-24T01:54:01;37.33;;;13.95;;
572;SDS011;271;51.114;13.780;2022-11-24T01:56:31;38.63;;;14.00;;
572;SDS011;271;51.114;13.780;2022-11-24T01:59:02;37.58;;;15.70;;
572;SDS011;271;51.114;13.780;2022-11-24T02:01:33;39.10;;;14.77;;
572;SDS011;271;51.114;13.780;2022-11-24T02:04:00;35.67;;;12.10;;
572;SDS011;271;51.114;13.780;2022-11-24T02:06:31;39.80;;;13.02;;
572;SDS011;271;51.114;13.780;2022-11-24T02:09:04;42.25;;;14.10;;
572;SDS011;271;51.114;13.780;2022-11-24T02:11:36;34.90;;;12.88;;
572;SDS011;271;51.114;13.780;2022-11-24T02:14:06;36.55;;;13.50;;
572;SDS011;271;51.114;13.780;2022-11-24T02:16:37;36.30;;;14.27;;
572;SDS011;271;51.114;13.780;2022-11-24T02:19:08;38.35;;;14.57;;
572;SDS011;271;51.114;13.780;2022-11-24T02:21:42;33.08;;;12.27;;
572;SDS011;271;51.114;13.780;2022-11-24T02:24:11;34.28;;;13.18;;
572;SDS011;271;51.114;13.780;2022-11-24T02:26:47;34.22;;;13.13;;
572;SDS011;271;51.114;13.780;2022-11-24T02:29:16;35.15;;;13.05;;
572;SDS011;271;51.114;13.780;2022-11-24T02:31:46;34.20;;;12.85;;
572;SDS011;271;51.114;13.780;2022-11-24T02:34:16;35.65;;;13.52;;
572;SDS011;271;51.114;13.780;2022-11-24T02:36:44;35.38;;;13.55;;
572;SDS011;271;51.114;13.780;2022-11-24T02:39:12;31.90;;;12.73;;
572;SDS011;271;51.114;13.780;2022-11-24T02:41:41;38.60;;;13.95;;
572;SDS011;271;51.114;13.780;2022-11-24T02:44:13;34.35;;;13.40;;
572;SDS011;271;51.114;13.780;2022-11-24T02:46:43;35.22;;;12.57;;
572;SDS011;271;51.114;13.780;2022-11-24T02:49:11;35.55;;;14.55;;
572;SDS011;271;51.114;13.780;2022-11-24T02:51:38;38.13;;;13.70;;
572;SDS011;271;51.114;13.780;2022-11-24T02:54:06;36.95;;;12.85;;
572;SDS011;271;51.114;13.780;2022-11-24T02:56:34;35.08;;;12.60;;
572;SDS011;271;51.114;13.780;2022-11-24T02:59:01;36.30;;;13.55;;
572;SDS011;271;51.114;13.780;2022-11-24T03:01:30;33.92;;;11.75;;
572;SDS011;271;51.114;13.780;2022-11-24T03:03:58;31.52;;;11.00;;
572;SDS011;271;51.114;13.780;2022-11-24T03:06:25;34.08;;;13.52;;
572;SDS011;271;51.114;13.780;2022-11-24T03:08:53;35.00;;;12.70;;
572;SDS011;271;51.114;13.780;2022-11-24T03:11:20;38.60;;;14.35;;
572;SDS011;271;51.114;13.780;2022-11-24T03:13:48;35.58;;;12.77;;
572;SDS011;271;51.114;13.780;2022-11-24T03:16:15;32.55;;;13.13;;
572;SDS011;271;51.114;13.780;2022-11-24T03:18:44;37.97;;;14.30;;
572;SDS011;271;51.114;13.780;2022-11-24T03:21:13;32.80;;;12.10;;
572;SDS011;271;51.114;13.780;2022-11-24T03:23:40;36.60;;;13.13;;
572;SDS011;271;51.114;13.780;2022-11-24T03:26:08;34.85;;;13.40;;
572;SDS011;271;51.114;13.780;2022-11-24T03:28:36;32.55;;;13.50;;
572;SDS011;271;51.114;13.780;2022-11-24T03:31:04;31.63;;;12.05;;
572;SDS011;271;51.114;13.780;2022-11-24T03:33:33;33.30;;;11.18;;
572;SDS011;271;51.114;13.780;2022-11-24T03:36:02;33.53;;;11.68;;
572;SDS011;271;51.114;13.780;2022-11-24T03:38:31;35.22;;;12.48;;
572;SDS011;271;51.114;13.780;2022-11-24T03:40:59;32.85;;;12.30;;
572;SDS011;271;51.114;13.780;2022-11-24T03:43:26;32.55;;;12.73;;
572;SDS011;271;51.114;13.780;2022-11-24T03:45:54;31.73;;;12.63;;
572;SDS011;271;51.114;13.780;2022-11-24T03:48:22;34.22;;;13.45;;
572;SDS011;271;51.114;13.780;2022-11-24T03:50:52;33.78;;;12.80;;
572;SDS011;271;51.114;13.780;2022-11-24T03:53:23;34.13;;;11.35;;
572;SDS011;271;51.114;13.780;2022-11-24T03:55:52;35.55;;;12.93;;
572;SDS011;271;51.114;13.780;2022-11-24T03:58:20;32.35;;;12.80;;
572;SDS011;271;51.114;13.780;2022-11-24T04:00:48;35.97;;;12.80;;
572;SDS011;271;51.114;13.780;2022-11-24T04:03:16;34.70;;;12.50;;
572;SDS011;271;51.114;13.780;2022-11-24T04:05:43;32.50;;;11.95;;
572;SDS011;271;51.114;13.780;2022-11-24T04:08:11;31.90;;;12.18;;
572;SDS011;271;51.114;13.780;2022-11-24T04:10:40;34.67;;;12.60;;
572;SDS011;271;51.114;13.780;2022-11-24T04:13:10;31.17;;;11.60;;
572;SDS011;271;51.114;13.780;2022-11-24T04:15:38;32.60;;;12.50;;
572;SDS011;271;51.114;13.780;2022-11-24T04:18:06;33.65;;;12.35;;
572;SDS011;271;51.114;13.780;2022-11-24T04:20:34;34.25;;;12.32;;
572;SDS011;271;51.114;13.780;2022-11-24T04:23:02;34.13;;;11.90;;
572;SDS011;271;51.114;13.780;2022-11-24T04:25:29;31.33;;;12.05;;
572;SDS011;271;51.114;13.780;2022-11-24T04:27:58;31.35;;;12.30;;
572;SDS011;271;51.114;13.780;2022-11-24T04:30:26;34.35;;;13.40;;
572;SDS011;271;51.114;13.780;2022-11-24T04:32:54;31.95;;;11.15;;
572;SDS011;271;51.114;13.780;2022-11-24T04:35:22;32.53;;;12.68;;
572;SDS011;271;51.114;13.780;2022-11-24T04:37:50;36.28;;;13.20;;
572;SDS011;271;51.114;13.780;2022-11-24T04:40:17;30.50;;;11.75;;
572;SDS011;271;51.114;13.780;2022-11-24T04:42:51;31.10;;;11.38;;
572;SDS011;271;51.114;13.780;2022-11-24T04:45:21;34.72;;;12.80;;
572;SDS011;271;51.114;13.780;2022-11-24T04:47:49;32.38;;;12.98;;
572;SDS011;271;51.114;13.780;2022-11-24T04:50:16;31.80;;;10.68;;
572;SDS011;271;51.114;13.780;2022-11-24T04:52:44;32.60;;;11.30;;
572;SDS011;271;51.114;13.780;2022-11-24T04:55:11;31.60;;;11.10;;
572;SDS011;271;51.114;13.780;2022-11-24T04:57:39;33.45;;;12.73;;
572;SDS011;271;51.114;13.780;2022-11-24T05:00:07;34.05;;;12.00;;
572;SDS011;271;51.114;13.780;2022-11-24T05:02:37;32.40;;;11.82;;
572;SDS011;271;51.114;13.780;2022-11-24T05:05:05;35.85;;;12.52;;
572;SDS011;271;51.114;13.780;2022-11-24T05:07:35;33.70;;;12.32;;
572;SDS011;271;51.114;13.780;2022-11-24T05:10:03;32.83;;;12.35;;
572;SDS011;271;51.114;13.780;2022-11-24T05:12:52;31.17;;;11.60;;
572;SDS011;271;51.114;13.780;2022-11-24T05:15:21;33.55;;;10.88;;
572;SDS011;271;51.114;13.780;2022-11-24T05:17:51;35.75;;;12.80;;
572;SDS011;271;51.114;13.780;2022-11-24T05:20:18;33.25;;;11.48;;
572;SDS011;271;51.114;13.780;2022-11-24T05:22:46;33.53;;;11.50;;
572;SDS011;271;51.114;13.780;2022-11-24T05:25:16;37.92;;;12.93;;
572;SDS011;271;51.114;13.780;2022-11-24T05:27:44;36.15;;;12.48;;
572;SDS011;271;51.114;13.780;2022-11-24T05:30:11;35.92;;;12.07;;
572;SDS011;271;51.114;13.780;2022-11-24T05:32:39;33.83;;;12.68;;
572;SDS011;271;51.114;13.780;2022-11-24T05:35:08;32.05;;;11.98;;
572;SDS011;271;51.114;13.780;2022-11-24T05:37:36;37.17;;;13.65;;
572;SDS011;271;51.114;13.780;2022-11-24T05:40:04;33.80;;;11.73;;
572;SDS011;271;51.114;13.780;2022-11-24T05:42:32;31.77;;;11.55;;
572;SDS011;271;51.114;13.780;2022-11-24T05:45:06;31.75;;;12.63;;
572;SDS011;271;51.114;13.780;2022-11-24T05:47:36;32.65;;;12.77;;
572;SDS011;271;51.114;13.780;2022-11-24T05:50:04;33.08;;;12.82;;
572;SDS011;271;51.114;13.780;2022-11-24T05:52:34;34.38;;;12.80;;
572;SDS011;271;51.114;13.780;2022-11-24T05:55:02;33.60;;;12.35;;
572;SDS011;271;51.114;13.780;2022-11-24T05:57:30;35.75;;;14.23;;
572;SDS011;271;51.114;13.780;2022-11-24T05:59:57;38.03;;;15.40;;
572;SDS011;271;51.114;13.780;2022-11-24T06:02:25;36.25;;;15.25;;
572;SDS011;271;51.114;13.780;2022-11-24T06:07:51;36.60;;;14.80;;
572;SDS011;271;51.114;13.780;2022-11-24T06:10:20;40.88;;;16.02;;
572;SDS011;271;51.114;13.780;2022-11-24T06:12:48;37.00;;;17.25;;
572;SDS011;271;51.114;13.780;2022-11-24T06:15:16;34.58;;;16.23;;
572;SDS011;271;51.114;13.780;2022-11-24T06:17:43;34.08;;;15.80;;
572;SDS011;271;51.114;13.780;2022-11-24T06:20:17;40.00;;;15.55;;
572;SDS011;271;51.114;13.780;2022-11-24T06:22:45;33.75;;;13.98;;
572;SDS011;271;51.114;13.780;2022-11-24T06:25:15;35.53;;;14.00;;
572;SDS011;271;51.114;13.780;2022-11-24T06:27:43;36.25;;;14.88;;
572;SDS011;271;51.114;13.780;2022-11-24T06:30:11;37.20;;;13.23;;
572;SDS011;271;51.114;13.780;2022-11-24T06:32:39;35.72;;;14.82;;
572;SDS011;271;51.114;13.780;2022-11-24T06:35:10;37.28;;;14.30;;
572;SDS011;271;51.114;13.780;2022-11-24T06:37:38;37.17;;;15.15;;
572;SDS011;271;51.114;13.780;2022-11-24T06:40:06;35.88;;;15.10;;
572;SDS011;271;51.114;13.780;2022-11-24T06:42:36;33.75;;;13.93;;
572;SDS011;271;51.114;13.780;2022-11-24T06:45:03;35.78;;;15.05;;
572;SDS011;271;51.114;13.780;2022-11-24T06:47:31;34.97;;;13.82;;
572;SDS011;271;51.114;13.780;2022-11-24T06:50:01;34.50;;;14.23;;
572;SDS011;271;51.114;13.780;2022-11-24T06:52:30;34.47;;;12.73;;
572;SDS011;271;51.114;13.780;2022-11-24T06:54:57;31.45;;;12.88;;
572;SDS011;271;51.114;13.780;2022-11-24T06:57:25;35.00;;;13.10;;
572;SDS011;271;51.114;13.780;2022-11-24T06:59:55;35.88;;;15.20;;
572;SDS011;271;51.114;13.780;2022-11-24T07:02:23;33.55;;;12.60;;
572;SDS011;271;51.114;13.780;2022-11-24T07:04:50;34.40;;;13.48;;
572;SDS011;271;51.114;13.780;2022-11-24T07:07:17;33.90;;;13.15;;
572;SDS011;271;51.114;13.780;2022-11-24T07:09:45;36.22;;;13.38;;
572;SDS011;271;51.114;13.780;2022-11-24T07:12:12;36.97;;;12.90;;
572;SDS011;271;51.114;13.780;2022-11-24T07:14:39;38.90;;;15.35;;
572;SDS011;271;51.114;13.780;2022-11-24T07:17:08;35.63;;;12.95;;
572;SDS011;271;51.114;13.780;2022-11-24T07:19:36;33.83;;;13.38;;
572;SDS011;271;51.114;13.780;2022-11-24T07:22:03;35.13;;;14.38;;
572;SDS011;271;51.114;13.780;2022-11-24T07:24:30;29.77;;;11.93;;
572;SDS011;271;51.114;13.780;2022-11-24T07:26:58;31.15;;;11.85;;
572;SDS011;271;51.114;13.780;2022-11-24T07:29:25;34.28;;;13.10;;
572;SDS011;271;51.114;13.780;2022-11-24T07:31:53;35.60;;;13.27;;
572;SDS011;271;51.114;13.780;2022-11-24T07:34:21;32.33;;;12.07;;
572;SDS011;271;51.114;13.780;2022-11-24T07:36:49;35.42;;;14.65;;
572;SDS011;271;51.114;13.780;2022-11-24T07:39:16;34.33;;;12.25;;
572;SDS011;271;51.114;13.780;2022-11-24T07:41:44;36.15;;;14.40;;
572;SDS011;271;51.114;13.780;2022-11-24T07:44:13;34.55;;;12.88;;
572;SDS011;271;51.114;13.780;2022-11-24T07:46:41;32.30;;;12.85;;
572;SDS011;271;51.114;13.780;2022-11-24T07:49:09;32.00;;;12.43;;
572;SDS011;271;51.114;13.780;2022-11-24T07:51:38;32.33;;;13.50;;
572;SDS011;271;51.114;13.780;2022-11-24T07:54:05;31.23;;;12.65;;
572;SDS011;271;51.114;13.780;2022-11-24T07:56:32;30.98;;;11.38;;
572;SDS011;271;51.114;13.780;2022-11-24T07:59:00;34.95;;;13.82;;
572;SDS011;271;51.114;13.780;2022-11-24T08:01:27;36.05;;;13.25;;
572;SDS011;271;51.114;13.780;2022-11-24T08:03:54;32.90;;;14.00;;
572;SDS011;271;51.114;13.780;2022-11-24T08:06:22;36.22;;;18.77;;
572;SDS011;271;51.114;13.780;2022-11-24T08:08:50;30.88;;;13.25;;
572;SDS011;271;51.114;13.780;2022-11-24T08:11:18;32.20;;;11.88;;
572;SDS011;271;51.114;13.780;2022-11-24T08:13:45;33.33;;;12.57;;
572;SDS011;271;51.114;13.780;2022-11-24T08:16:13;32.35;;;11.30;;
572;SDS011;271;51.114;13.780;2022-11-24T08:18:42;31.38;;;11.93;;
572;SDS011;271;51.114;13.780;2022-11-24T08:21:10;32.20;;;11.23;;
572;SDS011;271;51.114;13.780;2022-11-24T08:23:39;30.05;;;11.73;;
572;SDS011;271;51.114;13.780;2022-11-24T08:26:09;30.98;;;11.65;;
572;SDS011;271;51.114;13.780;2022-11-24T08:28:40;29.40;;;11.02;;
572;SDS011;271;51.114;13.780;2022-11-24T08:31:09;29.70;;;10.00;;
572;SDS011;271;51.114;13.780;2022-11-24T08:33:37;29.23;;;9.63;;
572;SDS011;271;51.114;13.780;2022-11-24T08:36:06;30.77;;;10.93;;
572;SDS011;271;51.114;13.780;2022-11-24T08:38:35;31.70;;;10.25;;
572;SDS011;271;51.114;13.780;2022-11-24T08:41:03;27.85;;;9.75;;
572;SDS011;271;51.114;13.780;2022-11-24T08:43:33;29.48;;;9.50;;
572;SDS011;271;51.114;13.780;2022-11-24T08:46:01;28.73;;;10.32;;
572;SDS011;271;51.114;13.780;2022-11-24T08:48:29;32.10;;;9.85;;
572;SDS011;271;51.114;13.780;2022-11-24T08:50:56;30.48;;;11.32;;
572;SDS011;271;51.114;13.780;2022-11-24T08:53:24;32.67;;;11.38;;
572;SDS011;271;51.114;13.780;2022-11-24T08:55:52;26.08;;;9.10;;
572;SDS011;271;51.114;13.780;2022-11-24T08:58:24;31.65;;;10.60;;
572;SDS011;271;51.114;13.780;2022-11-24T09:00:53;28.13;;;10.27;;
572;SDS011;271;51.114;13.780;2022-11-24T09:03:20;31.48;;;9.95;;
572;SDS011;271;51.114;13.780;2022-11-24T09:05:48;30.52;;;10.52;;
572;SDS011;271;51.114;13.780;2022-11-24T09:08:15;28.00;;;9.43;;
572;SDS011;271;51.114;13.780;2022-11-24T09:10:42;30.55;;;9.93;;
572;SDS011;271;51.114;13.780;2022-11-24T09:13:10;30.13;;;10.55;;
572;SDS011;271;51.114;13.780;2022-11-24T09:15:37;31.02;;;10.32;;
572;SDS011;271;51.114;13.780;2022-11-24T09:18:06;28.98;;;10.15;;
572;SDS011;271;51.114;13.780;2022-11-24T09:20:33;29.42;;;10.07;;
572;SDS011;271;51.114;13.780;2022-11-24T09:23:00;26.67;;;9.38;;
572;SDS011;271;51.114;13.780;2022-11-24T09:25:28;25.38;;;9.10;;
572;SDS011;271;51.114;13.780;2022-11-24T09:27:55;29.85;;;9.98;;
572;SDS011;271;51.114;13.780;2022-11-24T09:30:24;28.27;;;9.88;;
572;SDS011;271;51.114;13.780;2022-11-24T09:32:52;28.45;;;9.85;;
572;SDS011;271;51.114;13.780;2022-11-24T09:35:22;30.35;;;9.30;;
572;SDS011;271;51.114;13.780;2022-11-24T09:37:50;27.88;;;8.52;;
572;SDS011;271;51.114;13.780;2022-11-24T09:40:17;26.50;;;9.05;;
572;SDS011;271;51.114;13.780;2022-11-24T09:42:47;26.42;;;9.63;;
572;SDS011;271;51.114;13.780;2022-11-24T09:45:26;30.48;;;10.10;;
572;SDS011;271;51.114;13.780;2022-11-24T09:48:09;28.50;;;9.75;;
572;SDS011;271;51.114;13.780;2022-11-24T09:50:40;26.95;;;8.18;;
572;SDS011;271;51.114;13.780;2022-11-24T09:53:12;25.80;;;7.38;;
572;SDS011;271;51.114;13.780;2022-11-24T09:55:45;28.50;;;9.80;;
572;SDS011;271;51.114;13.780;2022-11-24T09:58:17;27.95;;;8.75;;
572;SDS011;271;51.114;13.780;2022-11-24T10:00:55;25.63;;;8.90;;
572;SDS011;271;51.114;13.780;2022-11-24T10:03:25;28.90;;;9.98;;
572;SDS011;271;51.114;13.780;2022-11-24T10:05:58;27.50;;;10.10;;
572;SDS011;271;51.114;13.780;2022-11-24T10:08:37;27.90;;;8.82;;
572;SDS011;271;51.114;13.780;2022-11-24T10:11:14;28.33;;;9.52;;
572;SDS011;271;51.114;13.780;2022-11-24T10:13:46;30.30;;;9.02;;
572;SDS011;271;51.114;13.780;2022-11-24T10:16:33;27.83;;;8.73;;
572;SDS011;271;51.114;13.780;2022-11-24T10:19:11;25.27;;;7.65;;
572;SDS011;271;51.114;13.780;2022-11-24T10:21:51;28.52;;;9.73;;
572;SDS011;271;51.114;13.780;2022-11-24T10:24:37;28.92;;;11.82;;
572;SDS011;271;51.114;13.780;2022-11-24T10:27:21;35.22;;;19.70;;
572;SDS011;271;51.114;13.780;2022-11-24T10:29:52;40.25;;;19.98;;
572;SDS011;271;51.114;13.780;2022-11-24T10:32:21;35.00;;;19.38;;
572;SDS011;271;51.114;13.780;2022-11-24T10:34:51;32.95;;;16.92;;
572;SDS011;271;51.114;13.780;2022-11-24T10:37:22;33.35;;;17.70;;
572;SDS011;271;51.114;13.780;2022-11-24T10:39:57;32.35;;;15.15;;
572;SDS011;271;51.114;13.780;2022-11-24T10:42:29;29.85;;;14.07;;
572;SDS011;271;51.114;13.780;2022-11-24T10:45:02;29.75;;;12.95;;
572;SDS011;271;51.114;13.780;2022-11-24T10:47:36;29.90;;;13.45;;
572;SDS011;271;51.114;13.780;2022-11-24T10:50:04;29.70;;;13.63;;
572;SDS011;271;51.114;13.780;2022-11-24T10:52:43;29.67;;;12.73;;
572;SDS011;271;51.114;13.780;2022-11-24T10:55:13;27.88;;;11.82;;
572;SDS011;271;51.114;13.780;2022-11-24T10:57:41;31.52;;;13.43;;
572;SDS011;271;51.114;13.780;2022-11-24T11:00:28;28.17;;;11.55;;
572;SDS011;271;51.114;13.780;2022-11-24T11:03:15;28.33;;;11.73;;
572;SDS011;271;51.114;13.780;2022-11-24T11:05:46;29.67;;;11.75;;
572;SDS011;271;51.114;13.780;2022-11-24T11:08:19;28.25;;;11.82;;
572;SDS011;271;51.114;13.780;2022-11-24T11:10:49;28.90;;;12.10;;
572;SDS011;271;51.114;13.780;2022-11-24T11:13:20;30.75;;;12.90;;
572;SDS011;271;51.114;13.780;2022-11-24T11:15:49;35.33;;;13.25;;
572;SDS011;271;51.114;13.780;2022-11-24T11:18:17;32.05;;;13.88;;
572;SDS011;271;51.114;13.780;2022-11-24T11:20:49;36.20;;;16.95;;
572;SDS011;271;51.114;13.780;2022-11-24T11:23:21;35.92;;;14.77;;
572;SDS011;271;51.114;13.780;2022-11-24T11:28:58;36.08;;;15.40;;
572;SDS011;271;51.114;13.780;2022-11-24T11:31:28;32.85;;;14.95;;
572;SDS011;271;51.114;13.780;2022-11-24T11:33:59;32.13;;;13.60;;
572;SDS011;271;51.114;13.780;2022-11-24T11:36:28;30.98;;;13.93;;
572;SDS011;271;51.114;13.780;2022-11-24T11:38:58;32.40;;;14.10;;
572;SDS011;271;51.114;13.780;2022-11-24T11:41:28;34.58;;;14.48;;
572;SDS011;271;51.114;13.780;2022-11-24T11:44:01;34.53;;;19.33;;
572;SDS011;271;51.114;13.780;2022-11-24T11:46:36;46.25;;;30.50;;
572;SDS011;271;51.114;13.780;2022-11-24T11:49:04;38.72;;;26.25;;
572;SDS011;271;51.114;13.780;2022-11-24T11:51:38;39.72;;;24.13;;
572;SDS011;271;51.114;13.780;2022-11-24T11:54:17;30.35;;;14.80;;
572;SDS011;271;51.114;13.780;2022-11-24T11:56:54;28.50;;;12.35;;
572;SDS011;271;51.114;13.780;2022-11-24T11:59:41;30.45;;;12.13;;
572;SDS011;271;51.114;13.780;2022-11-24T12:02:39;25.88;;;9.68;;
572;SDS011;271;51.114;13.780;2022-11-24T12:05:39;26.02;;;9.93;;
572;SDS011;271;51.114;13.780;2022-11-24T12:08:17;27.63;;;9.98;;
572;SDS011;271;51.114;13.780;2022-11-24T12:10:56;24.77;;;8.88;;
572;SDS011;271;51.114;13.780;2022-11-24T12:13:35;28.67;;;10.95;;
572;SDS011;271;51.114;13.780;2022-11-24T12:16:19;29.60;;;11.15;;
572;SDS011;271;51.114;13.780;2022-11-24T12:18:59;26.70;;;10.75;;
572;SDS011;271;51.114;13.780;2022-11-24T12:21:47;29.27;;;11.43;;
572;SDS011;271;51.114;13.780;2022-11-24T12:24:28;31.25;;;12.18;;
572;SDS011;271;51.114;13.780;2022-11-24T12:27:04;29.10;;;10.77;;
572;SDS011;271;51.114;13.780;2022-11-24T12:32:58;30.67;;;11.23;;
572;SDS011;271;51.114;13.780;2022-11-24T12:35:51;27.80;;;10.10;;
572;SDS011;271;51.114;13.780;2022-11-24T12:38:31;27.90;;;10.57;;
572;SDS011;271;51.114;13.780;2022-11-24T12:41:17;32.38;;;11.95;;
572;SDS011;271;51.114;13.780;2022-11-24T12:43:52;28.67;;;11.70;;
572;SDS011;271;51.114;13.780;2022-11-24T12:46:25;28.85;;;9.80;;
572;SDS011;271;51.114;13.780;2022-11-24T12:49:07;31.52;;;11.93;;
572;SDS011;271;51.114;13.780;2022-11-24T12:51:43;35.85;;;12.07;;
572;SDS011;271;51.114;13.780;2022-11-24T12:54:16;30.77;;;11.38;;
572;SDS011;271;51.114;13.780;2022-11-24T12:56:47;31.10;;;11.73;;
572;SDS011;271;51.114;13.780;2022-11-24T12:59:23;32.28;;;12.00;;
572;SDS011;271;51.114;13.780;2022-11-24T13:02:02;27.58;;;10.68;;
572;SDS011;271;51.114;13.780;2022-11-24T13:04:41;30.92;;;10.57;;
572;SDS011;271;51.114;13.780;2022-11-24T13:07:16;30.65;;;11.20;;
572;SDS011;271;51.114;13.780;2022-11-24T13:12:56;30.00;;;9.90;;
572;SDS011;271;51.114;13.780;2022-11-24T13:15:26;30.83;;;11.40;;
572;SDS011;271;51.114;13.780;2022-11-24T13:17:55;33.28;;;12.30;;
572;SDS011;271;51.114;13.780;2022-11-24T13:20:24;31.30;;;12.10;;
572;SDS011;271;51.114;13.780;2022-11-24T13:22:57;31.95;;;12.38;;
572;SDS011;271;51.114;13.780;2022-11-24T13:25:27;30.65;;;11.50;;
572;SDS011;271;51.114;13.780;2022-11-24T13:27:58;29.65;;;10.82;;
572;SDS011;271;51.114;13.780;2022-11-24T13:33:50;38.72;;;13.60;;
572;SDS011;271;51.114;13.780;2022-11-24T13:39:01;33.72;;;12.45;;
572;SDS011;271;51.114;13.780;2022-11-24T13:44:52;31.77;;;11.73;;
572;SDS011;271;51.114;13.780;2022-11-24T13:47:27;30.77;;;11.07;;
572;SDS011;271;51.114;13.780;2022-11-24T13:50:06;28.13;;;10.32;;
572;SDS011;271;51.114;13.780;2022-11-24T13:52:45;30.77;;;12.13;;
572;SDS011;271;51.114;13.780;2022-11-24T13:55:31;32.95;;;11.98;;
572;SDS011;271;51.114;13.780;2022-11-24T14:01:12;28.17;;;10.15;;
572;SDS011;271;51.114;13.780;2022-11-24T14:03:43;26.88;;;10.10;;
572;SDS011;271;51.114;13.780;2022-11-24T14:06:19;28.42;;;9.63;;
572;SDS011;271;51.114;13.780;2022-11-24T14:08:51;28.63;;;9.90;;
572;SDS011;271;51.114;13.780;2022-11-24T14:11:19;31.60;;;10.88;;
572;SDS011;271;51.114;13.780;2022-11-24T14:13:47;30.85;;;11.55;;
572;SDS011;271;51.114;13.780;2022-11-24T14:16:16;30.73;;;11.13;;
572;SDS011;271;51.114;13.780;2022-11-24T14:18:44;28.83;;;10.65;;
572;SDS011;271;51.114;13.780;2022-11-24T14:24:02;29.08;;;10.45;;
572;SDS011;271;51.114;13.780;2022-11-24T14:26:45;31.90;;;11.30;;
572;SDS011;271;51.114;13.780;2022-11-24T14:29:19;29.35;;;11.35;;
572;SDS011;271;51.114;13.780;2022-11-24T14:31:51;28.80;;;11.30;;
572;SDS011;271;51.114;13.780;2022-11-24T14:34:20;31.73;;;12.15;;
572;SDS011;271;51.114;13.780;2022-11-24T14:36:50;31.65;;;11.80;;
572;SDS011;271;51.114;13.780;2022-11-24T14:39:20;25.30;;;9.63;;
572;SDS011;271;51.114;13.780;2022-11-24T14:41:49;28.60;;;10.05;;
572;SDS011;271;51.114;13.780;2022-11-24T14:44:27;28.75;;;10.93;;
572;SDS011;271;51.114;13.780;2022-11-24T14:46:59;28.63;;;10.93;;
572;SDS011;271;51.114;13.780;2022-11-24T14:49:28;26.95;;;9.65;;
572;SDS011;271;51.114;13.780;2022-11-24T14:51:59;26.38;;;9.60;;
572;SDS011;271;51.114;13.780;2022-11-24T14:54:28;27.83;;;9.60;;
572;SDS011;271;51.114;13.780;2022-11-24T14:56:58;25.92;;;9.38;;
572;SDS011;271;51.114;13.780;2022-11-24T14:59:27;28.77;;;10.60;;
572;SDS011;271;51.114;13.780;2022-11-24T15:01:56;26.80;;;8.73;;
572;SDS011;271;51.114;13.780;2022-11-24T15:04:25;26.20;;;9.35;;
572;SDS011;271;51.114;13.780;2022-11-24T15:07:02;26.08;;;9.35;;
572;SDS011;271;51.114;13.780;2022-11-24T15:09:33;25.63;;;9.50;;
572;SDS011;271;51.114;13.780;2022-11-24T15:12:06;25.02;;;9.07;;
572;SDS011;271;51.114;13.780;2022-11-24T15:14:43;26.42;;;9.13;;
572;SDS011;271;51.114;13.780;2022-11-24T15:17:17;25.98;;;9.82;;
572;SDS011;271;51.114;13.780;2022-11-24T15:19:48;29.20;;;10.05;;
572;SDS011;271;51.114;13.780;2022-11-24T15:22:39;27.40;;;8.73;;
572;SDS011;271;51.114;13.780;2022-11-24T15:25:24;26.70;;;9.50;;
572;SDS011;271;51.114;13.780;2022-11-24T15:28:00;23.95;;;7.95;;
572;SDS011;271;51.114;13.780;2022-11-24T15:30:28;26.02;;;10.05;;
572;SDS011;271;51.114;13.780;2022-11-24T15:32:56;28.17;;;9.55;;
572;SDS011;271;51.114;13.780;2022-11-24T15:35:25;26.70;;;10.32;;
572;SDS011;271;51.114;13.780;2022-11-24T15:37:56;31.80;;;10.13;;
572;SDS011;271;51.114;13.780;2022-11-24T15:40:24;25.58;;;9.85;;
572;SDS011;271;51.114;13.780;2022-11-24T15:42:52;25.38;;;9.02;;
572;SDS011;271;51.114;13.780;2022-11-24T15:45:21;27.52;;;10.55;;
572;SDS011;271;51.114;13.780;2022-11-24T15:47:49;29.15;;;12.00;;
572;SDS011;271;51.114;13.780;2022-11-24T15:50:17;30.52;;;10.85;;